Uptown, Indiana
Current Conditions -  °F | °C
As of 12:53 AM on Thursday 29 Jan 2015 (Local Time) from KEYE Reporting Station
Clear Clear  
Wind Chill: 25°   Ceiling: Unl
Heat Index: 33°   Visibility: 10mi
Dew Point: 18°   Wind: 10mph
Humidity: 54%   Direction: 150°SSE
Pressure: 29.98"   Gusts: NA
Location:  39.8275°N, 86.1353°W
Report Text: KEYE 290553Z AUTO 15009KT 10SM CLR 01/M08 A2998 RMK AO2 SLP159 T00061078 10006 20000 58024 $
Loading
Personal Weather Stations






























Interactive Weather Map New forecast layout! Learn more

10-Day Weather Forecast

Advertisements
Track Severe Weather on mobile